createdAt,value
2019-01-25T00:01:41.708Z,112.13
2019-01-25T00:04:16.203Z,113.30
2019-01-25T00:06:50.767Z,109.17
2019-01-25T00:09:24.463Z,112.13
2019-01-25T00:11:57.847Z,106.63
2019-01-25T00:14:30.842Z,113.47
2019-01-25T00:17:04.135Z,113.97
2019-01-25T00:19:40.424Z,103.23
2019-01-25T00:22:13.482Z,113.23
2019-01-25T00:24:46.518Z,108.87
2019-01-25T00:27:20.832Z,105.70
2019-01-25T00:29:53.826Z,108.70
2019-01-25T00:32:28.836Z,112.17
2019-01-25T00:35:02.340Z,106.53
2019-01-25T00:37:36.081Z,109.20
2019-01-25T00:40:12.689Z,109.20
2019-01-25T00:42:45.984Z,111.57
2019-01-25T00:45:20.033Z,119.33
2019-01-25T00:47:52.945Z,116.40
2019-01-25T00:50:25.986Z,110.83
2019-01-25T00:52:59.333Z,100.63
2019-01-25T00:55:32.492Z,104.40
2019-01-25T00:58:06.131Z,104.07
2019-01-25T01:00:39.399Z,101.38
2019-01-25T01:03:12.346Z,103.80
2019-01-25T01:05:47.176Z,110.20
2019-01-25T01:08:20.511Z,103.93
2019-01-25T01:10:53.454Z,103.00
2019-01-25T01:13:26.369Z,100.57
2019-01-25T01:15:59.911Z,111.40
2019-01-25T01:18:33.427Z,107.80
2019-01-25T01:21:06.449Z,106.87
2019-01-25T01:23:39.991Z,103.93
2019-01-25T01:26:14.483Z,111.93
2019-01-25T01:28:47.261Z,102.27
2019-01-25T01:31:21.544Z,111.27
2019-01-25T01:33:55.122Z,114.23
2019-01-25T01:36:29.048Z,105.23
2019-01-25T01:39:05.211Z,97.40
2019-01-25T01:41:38.175Z,111.10
2019-01-25T01:44:11.126Z,99.37
2019-01-25T01:46:44.532Z,106.20
2019-01-25T01:49:17.332Z,110.30
2019-01-25T01:51:51.224Z,97.63
2019-01-25T01:54:24.815Z,103.07
2019-01-25T01:56:57.672Z,103.20
2019-01-25T01:59:31.252Z,107.43
2019-01-25T02:02:04.949Z,109.87
2019-01-25T02:04:37.959Z,107.47
2019-01-25T02:07:10.947Z,113.10
2019-01-25T02:09:44.299Z,113.40
2019-01-25T02:12:17.519Z,104.50
2019-01-25T02:14:50.476Z,111.30
2019-01-25T02:17:23.941Z,110.50
2019-01-25T02:19:57.730Z,106.60
2019-01-25T02:22:30.679Z,106.87
2019-01-25T02:25:04.844Z,112.27
2019-01-25T02:27:40.410Z,110.70
2019-01-25T02:30:19.785Z,111.62
2019-01-25T02:32:54.032Z,110.20
2019-01-25T02:35:26.851Z,110.10
2019-01-25T02:38:01.280Z,111.33
2019-01-25T02:40:39.186Z,105.73
2019-01-25T02:43:13.875Z,112.53
2019-01-25T02:45:48.072Z,111.20
2019-01-25T02:48:20.916Z,102.93
2019-01-25T02:50:53.755Z,99.80
2019-01-25T02:53:28.375Z,108.90
2019-01-25T02:56:01.475Z,94.68
2019-01-25T02:58:37.915Z,103.80
2019-01-25T03:01:11.655Z,104.87
2019-01-25T03:03:44.806Z,105.70
2019-01-25T03:06:17.923Z,102.83
2019-01-25T03:08:51.362Z,106.00
2019-01-25T03:11:24.288Z,104.47
2019-01-25T03:13:57.328Z,108.57
2019-01-25T03:16:30.665Z,102.40
2019-01-25T03:19:04.187Z,99.77
2019-01-25T03:21:37.055Z,103.90
2019-01-25T03:24:11.504Z,108.50
2019-01-25T03:26:44.289Z,98.03
2019-01-25T03:29:17.561Z,99.80
2019-01-25T03:31:51.874Z,106.50
2019-01-25T03:34:24.935Z,110.97
2019-01-25T03:36:58.800Z,100.25
2019-01-25T03:39:36.037Z,99.43
2019-01-25T03:42:08.986Z,100.73
2019-01-25T03:44:46.634Z,98.20
2019-01-25T03:47:23.456Z,97.97
2019-01-25T03:49:56.347Z,97.30
2019-01-25T03:52:29.875Z,103.00
2019-01-25T03:55:02.907Z,106.53
2019-01-25T03:57:36.291Z,102.67
2019-01-25T04:00:16.555Z,101.67
2019-01-25T04:02:51.798Z,100.20
2019-01-25T04:05:26.326Z,101.20
2019-01-25T04:07:59.719Z,97.47
2019-01-25T04:10:32.831Z,98.87
2019-01-25T04:13:06.555Z,91.70
2019-01-25T04:15:40.563Z,97.03
2019-01-25T04:18:13.461Z,101.40
2019-01-25T04:20:46.511Z,104.73
2019-01-25T04:23:19.900Z,98.87
2019-01-25T04:25:53.954Z,97.00
2019-01-25T04:28:26.767Z,103.67
2019-01-25T04:31:02.578Z,102.70
2019-01-25T04:33:35.572Z,101.37
2019-01-25T04:36:08.734Z,95.43
2019-01-25T04:38:42.116Z,104.03
2019-01-25T04:41:15.074Z,103.15
2019-01-25T04:43:49.684Z,100.93
2019-01-25T04:46:23.531Z,104.63
2019-01-25T04:48:57.053Z,103.57
2019-01-25T04:51:30.593Z,104.53
2019-01-25T04:54:04.096Z,109.03
2019-01-25T04:56:39.934Z,100.50
2019-01-25T04:59:12.743Z,101.97
2019-01-25T05:01:46.144Z,104.60
2019-01-25T05:04:18.920Z,105.43
2019-01-25T05:06:52.003Z,100.05
2019-01-25T05:09:26.859Z,103.30
2019-01-25T05:12:05.125Z,110.93
2019-01-25T05:14:38.464Z,108.43
2019-01-25T05:17:11.867Z,119.25
2019-01-25T05:19:46.289Z,114.20
2019-01-25T05:22:19.446Z,113.60
2019-01-25T05:24:52.860Z,117.13
2019-01-25T05:27:25.880Z,112.90
2019-01-25T05:29:59.057Z,111.13
2019-01-25T05:32:33.420Z,118.10
2019-01-25T05:35:06.287Z,116.57
2019-01-25T05:37:39.494Z,108.20
2019-01-25T05:40:20.601Z,100.37
2019-01-25T05:42:57.409Z,100.27
2019-01-25T05:45:30.880Z,109.57
2019-01-25T05:48:06.108Z,111.73
2019-01-25T05:50:38.933Z,121.23
2019-01-25T05:53:13.886Z,112.23
2019-01-25T05:55:47.201Z,117.20
2019-01-25T05:58:23.441Z,123.07
2019-01-25T06:00:57.346Z,126.30
2019-01-25T06:03:30.602Z,128.90
2019-01-25T06:06:08.460Z,125.50
2019-01-25T06:08:44.006Z,123.72
2019-01-25T06:11:18.728Z,121.57
2019-01-25T06:13:53.900Z,108.43
2019-01-25T06:16:26.824Z,126.60
2019-01-25T06:19:00.583Z,140.07
2019-01-25T06:21:33.915Z,149.05
2019-01-25T06:24:06.778Z,143.60
2019-01-25T06:26:46.455Z,146.73
2019-01-25T06:29:20.345Z,156.03
2019-01-25T06:31:53.623Z,147.20
2019-01-25T06:34:28.216Z,148.17
2019-01-25T06:37:01.803Z,148.30
2019-01-25T06:39:35.217Z,162.77
2019-01-25T06:42:10.664Z,161.47
2019-01-25T06:44:45.011Z,171.00
2019-01-25T06:47:18.055Z,169.20
2019-01-25T06:49:52.668Z,195.23
2019-01-25T06:52:26.008Z,185.67
2019-01-25T06:55:04.294Z,191.17
2019-01-25T06:57:49.389Z,193.27
2019-01-25T07:00:24.733Z,212.13
2019-01-25T07:03:02.518Z,199.90
2019-01-25T07:05:35.423Z,211.70
2019-01-25T07:08:14.842Z,227.80
2019-01-25T07:10:48.683Z,217.60
2019-01-25T07:13:22.560Z,207.57
2019-01-25T07:15:56.661Z,197.73
2019-01-25T07:18:29.529Z,209.10
2019-01-25T07:21:02.486Z,214.53
2019-01-25T07:23:35.922Z,226.77
2019-01-25T07:26:08.840Z,225.13
2019-01-25T07:28:43.613Z,214.63
2019-01-25T07:31:17.377Z,246.47
2019-01-25T07:33:52.143Z,235.17
2019-01-25T07:36:26.481Z,219.43
2019-01-25T07:38:59.378Z,234.43
2019-01-25T07:41:31.733Z,248.87
2019-01-25T07:44:06.851Z,249.57
2019-01-25T07:46:40.552Z,233.73
2019-01-25T07:49:13.549Z,249.50
2019-01-25T07:51:48.636Z,271.42
2019-01-25T07:54:24.546Z,257.47
2019-01-25T07:56:57.867Z,251.53
2019-01-25T07:59:36.686Z,247.03
2019-01-25T08:02:13.618Z,257.93
2019-01-25T08:04:47.841Z,248.20
2019-01-25T08:07:32.877Z,228.60
2019-01-25T08:10:18.219Z,248.33
2019-01-25T08:12:55.953Z,249.17
2019-01-25T08:15:30.253Z,261.23
2019-01-25T08:18:04.804Z,231.77
2019-01-25T08:20:37.674Z,253.83
2019-01-25T08:23:10.709Z,252.90
2019-01-25T08:25:44.453Z,242.07
2019-01-25T08:28:17.800Z,254.27
2019-01-25T08:30:51.148Z,252.53
2019-01-25T08:33:24.513Z,236.33
2019-01-25T08:36:00.595Z,231.07
2019-01-25T08:38:37.081Z,240.30
2019-01-25T08:41:10.661Z,234.67
2019-01-25T08:43:44.879Z,240.75
2019-01-25T08:46:23.437Z,245.47
2019-01-25T08:48:57.860Z,229.23
2019-01-25T08:51:32.325Z,241.40
2019-01-25T08:54:05.767Z,250.80
2019-01-25T08:56:42.717Z,250.10
2019-01-25T08:59:17.383Z,255.05
2019-01-25T09:01:50.864Z,247.83
2019-01-25T09:04:27.725Z,247.50
2019-01-25T09:07:02.676Z,252.37
2019-01-25T09:09:38.703Z,258.23
2019-01-25T09:12:13.549Z,250.83
2019-01-25T09:14:49.474Z,238.53
2019-01-25T09:17:24.356Z,231.47
2019-01-25T09:20:02.536Z,230.97
2019-01-25T09:22:35.389Z,215.40
2019-01-25T09:25:35.787Z,239.00
2019-01-25T09:28:14.017Z,222.67
2019-01-25T09:30:48.820Z,218.93
2019-01-25T09:33:23.486Z,207.00
2019-01-25T09:35:57.345Z,204.37
2019-01-25T09:38:36.776Z,208.90
2019-01-25T09:41:13.138Z,195.45
2019-01-25T09:43:48.124Z,204.60
2019-01-25T09:46:25.649Z,223.73
2019-01-25T09:48:59.530Z,208.43
2019-01-25T09:51:37.836Z,202.13
2019-01-25T09:54:12.377Z,203.77
2019-01-25T09:56:48.453Z,206.27
2019-01-25T09:59:25.395Z,195.10
2019-01-25T10:01:58.331Z,184.03
2019-01-25T10:04:35.422Z,192.37
2019-01-25T10:07:12.168Z,199.27
2019-01-25T10:09:49.799Z,218.50
2019-01-25T10:12:24.536Z,222.87
2019-01-25T10:14:59.497Z,226.67
2019-01-25T10:17:41.683Z,234.97
2019-01-25T10:20:16.537Z,216.93
2019-01-25T10:22:53.800Z,227.40
2019-01-25T10:25:29.517Z,237.53
2019-01-25T10:28:03.811Z,248.90
2019-01-25T10:30:36.897Z,253.40
2019-01-25T10:33:13.540Z,242.97
2019-01-25T10:35:51.898Z,223.10
2019-01-25T10:38:25.708Z,217.47
2019-01-25T10:41:05.020Z,212.38
2019-01-25T10:43:38.072Z,212.13
2019-01-25T10:46:11.926Z,218.80
2019-01-25T10:48:46.353Z,213.77
2019-01-25T10:51:22.772Z,210.50
2019-01-25T10:54:06.474Z,209.63
2019-01-25T10:56:41.956Z,204.67
2019-01-25T10:59:15.144Z,186.07
2019-01-25T11:01:49.932Z,189.90
2019-01-25T11:04:27.165Z,189.03
2019-01-25T11:07:01.317Z,180.53
2019-01-25T11:09:38.139Z,170.93
2019-01-25T11:12:12.724Z,158.47
2019-01-25T11:14:48.775Z,161.90
2019-01-25T11:17:23.832Z,147.20
2019-01-25T11:19:57.679Z,146.13
2019-01-25T11:22:30.877Z,140.77
2019-01-25T11:25:08.904Z,130.03
2019-01-25T11:27:41.758Z,130.87
2019-01-25T11:30:24.512Z,130.50
2019-01-25T11:32:58.332Z,135.00
2019-01-25T11:35:31.481Z,128.90
2019-01-25T11:38:07.488Z,125.90
2019-01-25T11:40:44.140Z,126.97
2019-01-25T11:43:20.014Z,126.63
2019-01-25T11:45:56.834Z,137.37
2019-01-25T11:48:33.481Z,123.30
2019-01-25T11:51:09.893Z,131.33
2019-01-25T11:53:43.409Z,119.70
2019-01-25T11:56:17.484Z,126.13
2019-01-25T11:58:52.995Z,122.40
2019-01-25T12:01:31.700Z,117.90
2019-01-25T12:04:08.274Z,117.37
2019-01-25T12:06:41.172Z,123.37
2019-01-25T12:09:16.444Z,120.73
2019-01-25T12:11:49.425Z,112.47
2019-01-25T12:14:23.406Z,112.13
2019-01-25T12:16:56.422Z,118.43
2019-01-25T12:19:30.760Z,109.07
2019-01-25T12:22:05.730Z,81.20
2019-01-25T12:24:42.083Z,102.27
2019-01-25T12:27:17.447Z,99.23
2019-01-25T12:29:52.172Z,94.00
2019-01-25T12:32:28.208Z,86.03
2019-01-25T12:35:07.348Z,81.93
2019-01-25T12:37:42.995Z,76.20
2019-01-25T12:40:17.765Z,87.70
2019-01-25T12:42:50.685Z,83.57
2019-01-25T12:45:27.027Z,90.57
2019-01-25T12:48:03.229Z,84.50
2019-01-25T12:50:49.135Z,83.47
2019-01-25T12:53:26.747Z,85.57
2019-01-25T12:56:02.384Z,78.90
2019-01-25T12:58:36.372Z,88.97
2019-01-25T13:01:10.302Z,73.00
2019-01-25T13:03:44.204Z,73.83
2019-01-25T13:06:18.230Z,86.40
2019-01-25T13:08:52.558Z,81.23
2019-01-25T13:11:26.393Z,72.60
2019-01-25T13:14:00.466Z,71.37
2019-01-25T13:16:35.989Z,72.60
2019-01-25T13:19:11.819Z,77.00
2019-01-25T13:21:48.916Z,68.60
2019-01-25T13:24:23.558Z,69.40
2019-01-25T13:27:00.411Z,63.33
2019-01-25T13:29:34.266Z,64.07
2019-01-25T13:32:14.445Z,62.17
2019-01-25T13:34:51.539Z,65.83
2019-01-25T13:37:31.315Z,61.70
2019-01-25T13:40:12.436Z,64.27
2019-01-25T13:42:59.595Z,61.47
2019-01-25T13:45:33.737Z,58.07
2019-01-25T13:48:06.942Z,61.83
2019-01-25T13:50:41.517Z,58.40
2019-01-25T13:53:24.778Z,65.20
2019-01-25T13:55:59.999Z,56.17
2019-01-25T13:58:36.876Z,51.33
2019-01-25T14:01:10.936Z,56.33
2019-01-25T14:03:46.690Z,49.30
2019-01-25T14:06:22.809Z,48.23
2019-01-25T14:08:59.023Z,46.40
2019-01-25T14:11:34.801Z,48.33
2019-01-25T14:14:08.541Z,32.57
2019-01-25T14:16:41.616Z,34.40
2019-01-25T14:19:16.526Z,34.03
2019-01-25T14:21:55.255Z,30.30
2019-01-25T14:24:29.218Z,26.20
2019-01-25T14:27:03.968Z,29.80
2019-01-25T14:29:39.069Z,37.78
2019-01-25T14:32:13.616Z,46.43
2019-01-25T14:34:48.853Z,48.07
2019-01-25T14:37:23.570Z,50.03
2019-01-25T14:39:57.187Z,49.37
2019-01-25T14:42:31.360Z,46.50
2019-01-25T14:45:10.545Z,50.63
2019-01-25T14:47:46.126Z,53.87
2019-01-25T14:50:21.832Z,54.57
2019-01-25T14:53:00.725Z,55.23
2019-01-25T14:55:37.526Z,56.13
2019-01-25T14:58:13.398Z,52.93
2019-01-25T15:00:54.731Z,51.90
2019-01-25T15:03:41.083Z,50.87
2019-01-25T15:06:22.852Z,52.10
2019-01-25T15:09:12.793Z,50.07
2019-01-25T15:11:54.246Z,53.03
2019-01-25T15:14:35.766Z,48.23
2019-01-25T15:17:14.091Z,46.70
2019-01-25T15:20:02.947Z,51.93
2019-01-25T15:22:50.209Z,46.30
2019-01-25T15:25:30.540Z,46.35
2019-01-25T15:28:10.298Z,51.50
2019-01-25T15:30:56.471Z,57.43
2019-01-25T15:33:45.988Z,49.33
2019-01-25T15:36:31.530Z,48.47
2019-01-25T15:39:14.860Z,53.50
2019-01-25T15:41:57.346Z,53.33
2019-01-25T15:44:41.854Z,49.67
2019-01-25T15:47:20.163Z,46.83
2019-01-25T15:50:05.886Z,49.87
2019-01-25T15:52:41.129Z,51.87
2019-01-25T15:55:15.452Z,49.15
2019-01-25T15:57:58.506Z,46.50
2019-01-25T16:00:32.769Z,42.30
2019-01-25T16:03:08.783Z,50.13
2019-01-25T16:05:43.673Z,46.45
2019-01-25T16:08:21.807Z,48.23
2019-01-25T16:11:00.809Z,44.23
2019-01-25T16:13:43.121Z,46.53
2019-01-25T16:16:20.396Z,42.60
2019-01-25T16:19:07.853Z,43.97
2019-01-25T16:21:42.603Z,43.20
2019-01-25T16:24:15.636Z,42.47
2019-01-25T16:26:49.611Z,36.77
2019-01-25T16:29:24.708Z,31.90
2019-01-25T16:32:01.956Z,33.97
2019-01-25T16:34:38.235Z,29.43
2019-01-25T16:37:14.398Z,29.90
2019-01-25T16:39:50.052Z,30.93
2019-01-25T16:42:24.777Z,31.60
2019-01-25T16:44:58.014Z,35.77
2019-01-25T16:47:31.465Z,34.90
2019-01-25T16:50:08.302Z,36.60
2019-01-25T16:52:48.349Z,40.57
2019-01-25T16:55:22.062Z,45.50
2019-01-25T16:57:58.641Z,41.00
2019-01-25T17:00:40.403Z,38.10
2019-01-25T17:03:22.612Z,40.87
2019-01-25T17:05:56.381Z,41.83
2019-01-25T17:08:33.377Z,45.90
2019-01-25T17:11:06.731Z,50.80
2019-01-25T17:13:44.437Z,48.77
2019-01-25T17:16:19.642Z,50.10
2019-01-25T17:18:55.624Z,52.63
2019-01-25T17:21:29.682Z,55.67
2019-01-25T17:24:06.647Z,57.03
2019-01-25T17:26:42.031Z,83.07
2019-01-25T17:29:17.341Z,71.57
2019-01-25T17:31:54.680Z,64.62
2019-01-25T17:34:32.244Z,63.23
2019-01-25T17:37:06.043Z,61.23
2019-01-25T17:39:57.717Z,58.40
2019-01-25T17:42:32.392Z,70.63
2019-01-25T17:45:09.103Z,68.93
2019-01-25T17:47:47.468Z,75.53
2019-01-25T17:50:20.659Z,74.93
2019-01-25T17:52:55.617Z,71.47
2019-01-25T17:55:36.522Z,69.67
2019-01-25T17:58:16.445Z,76.53
2019-01-25T18:00:57.601Z,70.77
2019-01-25T18:03:32.528Z,73.23
2019-01-25T18:06:05.924Z,77.00
2019-01-25T18:08:38.923Z,73.07
2019-01-25T18:11:12.632Z,64.63
2019-01-25T18:13:45.702Z,67.63
2019-01-25T18:16:24.900Z,71.43
2019-01-25T18:18:58.739Z,76.80
2019-01-25T18:21:34.835Z,69.90
2019-01-25T18:24:12.300Z,65.50
2019-01-25T18:26:46.382Z,64.77
2019-01-25T18:29:40.232Z,65.40
2019-01-25T18:32:14.040Z,69.67
2019-01-25T18:34:49.808Z,79.70
2019-01-25T18:37:25.309Z,73.63
2019-01-25T18:39:59.374Z,72.60
2019-01-25T18:42:34.236Z,76.17
2019-01-25T18:45:14.462Z,74.03
2019-01-25T18:47:48.663Z,75.60
2019-01-25T18:50:25.794Z,77.17
2019-01-25T18:53:02.106Z,77.93
2019-01-25T18:55:36.200Z,81.95
2019-01-25T18:58:10.536Z,82.20
2019-01-25T19:00:46.653Z,76.13
2019-01-25T19:03:21.945Z,81.30
2019-01-25T19:05:58.874Z,84.50
2019-01-25T19:08:35.162Z,82.37
2019-01-25T19:11:12.612Z,82.03
2019-01-25T19:13:51.216Z,78.73
2019-01-25T19:16:29.453Z,81.80
2019-01-25T19:19:04.708Z,82.53
2019-01-25T19:21:39.189Z,80.55
2019-01-25T19:24:14.613Z,79.40
2019-01-25T19:26:50.050Z,82.50
2019-01-25T19:29:27.836Z,78.47
2019-01-25T19:32:03.862Z,73.13
2019-01-25T19:34:45.141Z,79.87
2019-01-25T19:37:35.221Z,79.23
2019-01-25T19:40:17.303Z,79.27
2019-01-25T19:42:55.888Z,86.60
2019-01-25T19:45:36.577Z,87.93
2019-01-25T19:48:12.647Z,78.87
2019-01-25T19:50:48.596Z,72.17
2019-01-25T19:53:33.487Z,70.73
2019-01-25T19:56:10.025Z,77.57
2019-01-25T19:58:50.365Z,67.87
2019-01-25T20:01:29.405Z,66.63
2019-01-25T20:04:02.988Z,70.03
2019-01-25T20:06:37.663Z,69.70
2019-01-25T20:09:12.650Z,71.87
2019-01-25T20:11:51.710Z,64.90
2019-01-25T20:14:33.544Z,73.13
2019-01-25T20:17:09.097Z,74.87
2019-01-25T20:19:46.773Z,62.57
2019-01-25T20:22:21.880Z,62.85
2019-01-25T20:24:57.456Z,64.47
2019-01-25T20:27:34.744Z,63.67
2019-01-25T20:30:20.230Z,59.30
2019-01-25T20:32:57.417Z,63.83
2019-01-25T20:35:40.246Z,60.23
2019-01-25T20:38:16.576Z,58.23
2019-01-25T20:40:50.688Z,63.87
2019-01-25T20:43:29.436Z,62.13
2019-01-25T20:46:02.555Z,62.50
2019-01-25T20:48:37.417Z,63.33
2019-01-25T20:51:17.902Z,64.95
2019-01-25T20:53:52.035Z,71.67
2019-01-25T20:56:26.314Z,62.03
2019-01-25T20:59:02.031Z,64.00
2019-01-25T21:01:35.116Z,64.13
2019-01-25T21:04:09.464Z,62.93
2019-01-25T21:06:42.568Z,64.60
2019-01-25T21:09:17.630Z,68.87
2019-01-25T21:11:54.707Z,67.00
2019-01-25T21:14:27.874Z,70.10
2019-01-25T21:17:04.411Z,71.63
2019-01-25T21:19:38.798Z,69.03
2019-01-25T21:22:11.998Z,66.50
2019-01-25T21:24:45.301Z,69.30
2019-01-25T21:27:22.297Z,71.80
2019-01-25T21:29:56.286Z,69.07
2019-01-25T21:32:30.545Z,70.37
2019-01-25T21:35:06.105Z,61.93
2019-01-25T21:37:41.738Z,63.33
2019-01-25T21:40:19.120Z,63.43
2019-01-25T21:42:53.724Z,62.53
2019-01-25T21:45:30.212Z,61.03
2019-01-25T21:48:09.421Z,64.87
2019-01-25T21:50:45.402Z,64.33
2019-01-25T21:53:19.224Z,63.28
2019-01-25T21:55:53.092Z,54.40
2019-01-25T21:58:26.135Z,54.67
2019-01-25T22:01:10.202Z,57.83
2019-01-25T22:03:46.334Z,58.10
2019-01-25T22:06:19.312Z,57.53
2019-01-25T22:08:54.028Z,64.07
2019-01-25T22:11:31.105Z,59.73
2019-01-25T22:14:06.144Z,56.83
2019-01-25T22:16:45.165Z,52.67
2019-01-25T22:19:20.523Z,55.27
2019-01-25T22:21:55.605Z,53.87
2019-01-25T22:24:29.335Z,54.03
2019-01-25T22:27:04.650Z,59.70
2019-01-25T22:29:41.956Z,62.30
2019-01-25T22:32:17.388Z,54.20
2019-01-25T22:34:54.333Z,66.93
2019-01-25T22:37:28.404Z,66.40
2019-01-25T22:40:02.860Z,64.43
2019-01-25T22:42:37.589Z,58.80
2019-01-25T22:45:15.769Z,61.00
2019-01-25T22:47:51.519Z,62.23
2019-01-25T22:50:29.374Z,63.40
2019-01-25T22:53:08.294Z,67.87
2019-01-25T22:55:42.030Z,63.17
2019-01-25T22:58:16.210Z,63.97
2019-01-25T23:01:11.833Z,73.23
2019-01-25T23:04:37.005Z,64.10
2019-01-25T23:07:28.041Z,75.75
2019-01-25T23:10:15.813Z,85.25
2019-01-25T23:12:49.189Z,146.57
2019-01-25T23:15:23.576Z,137.37
2019-01-25T23:17:58.156Z,264.73
2019-01-25T23:20:31.056Z,289.30
2019-01-25T23:23:05.538Z,412.13
2019-01-25T23:25:39.728Z,309.30
2019-01-25T23:28:13.329Z,411.15
2019-01-25T23:30:46.870Z,347.73
2019-01-25T23:33:20.733Z,319.57
2019-01-25T23:35:56.584Z,458.47
2019-01-25T23:38:29.563Z,423.07
2019-01-25T23:41:02.479Z,498.30
2019-01-25T23:43:37.788Z,855.83
2019-01-25T23:46:13.865Z,665.00
2019-01-25T23:48:48.485Z,612.23
2019-01-25T23:51:23.785Z,786.93
2019-01-25T23:53:57.857Z,834.63
2019-01-25T23:56:32.375Z,856.40
2019-01-25T23:59:06.630Z,810.73
